sensor_id;sensor_type;location;lat;lon;timestamp;temperature;humidity
6102;DHT22;3081;50.584;7.032;2023-04-03T00:00:23;6.10;99.90
6102;DHT22;3081;50.584;7.032;2023-04-03T00:02:50;6.10;99.90
6102;DHT22;3081;50.584;7.032;2023-04-03T00:05:16;6.10;99.90
6102;DHT22;3081;50.584;7.032;2023-04-03T00:07:43;6.00;99.90
6102;DHT22;3081;50.584;7.032;2023-04-03T00:10:12;6.10;99.90
6102;DHT22;3081;50.584;7.032;2023-04-03T00:12:40;6.00;99.90
6102;DHT22;3081;50.584;7.032;2023-04-03T00:15:08;6.00;99.90
6102;DHT22;3081;50.584;7.032;2023-04-03T00:17:35;6.00;99.90
6102;DHT22;3081;50.584;7.032;2023-04-03T00:20:02;6.00;99.90
6102;DHT22;3081;50.584;7.032;2023-04-03T00:22:30;6.00;99.90
6102;DHT22;3081;50.584;7.032;2023-04-03T00:24:57;6.00;99.90
6102;DHT22;3081;50.584;7.032;2023-04-03T00:27:25;6.00;99.90
6102;DHT22;3081;50.584;7.032;2023-04-03T00:29:52;6.00;99.90
6102;DHT22;3081;50.584;7.032;2023-04-03T00:32:19;6.00;99.90
6102;DHT22;3081;50.584;7.032;2023-04-03T00:34:46;6.00;99.90
6102;DHT22;3081;50.584;7.032;2023-04-03T00:37:13;6.00;99.90
6102;DHT22;3081;50.584;7.032;2023-04-03T00:39:40;6.00;99.90
6102;DHT22;3081;50.584;7.032;2023-04-03T00:42:07;6.00;99.90
6102;DHT22;3081;50.584;7.032;2023-04-03T00:47:41;6.00;99.90
6102;DHT22;3081;50.584;7.032;2023-04-03T00:50:09;5.90;99.90
6102;DHT22;3081;50.584;7.032;2023-04-03T00:52:37;5.90;99.90
6102;DHT22;3081;50.584;7.032;2023-04-03T00:55:07;5.90;99.90
6102;DHT22;3081;50.584;7.032;2023-04-03T00:57:35;5.80;99.90
6102;DHT22;3081;50.584;7.032;2023-04-03T01:00:05;5.80;99.90
6102;DHT22;3081;50.584;7.032;2023-04-03T01:02:35;5.80;99.90
6102;DHT22;3081;50.584;7.032;2023-04-03T01:05:04;5.80;99.90
6102;DHT22;3081;50.584;7.032;2023-04-03T01:07:31;5.80;99.90
6102;DHT22;3081;50.584;7.032;2023-04-03T01:10:02;5.70;99.90
6102;DHT22;3081;50.584;7.032;2023-04-03T01:12:32;5.70;99.90
6102;DHT22;3081;50.584;7.032;2023-04-03T01:15:01;5.70;99.90
6102;DHT22;3081;50.584;7.032;2023-04-03T01:17:30;5.70;99.90
6102;DHT22;3081;50.584;7.032;2023-04-03T01:20:34;5.70;99.90
6102;DHT22;3081;50.584;7.032;2023-04-03T01:25:54;5.60;99.90
6102;DHT22;3081;50.584;7.032;2023-04-03T01:28:23;5.60;99.90
6102;DHT22;3081;50.584;7.032;2023-04-03T01:30:57;5.50;99.90
6102;DHT22;3081;50.584;7.032;2023-04-03T01:33:27;5.60;99.90
6102;DHT22;3081;50.584;7.032;2023-04-03T01:35:54;5.60;99.90
6102;DHT22;3081;50.584;7.032;2023-04-03T01:38:21;5.50;99.90
6102;DHT22;3081;50.584;7.032;2023-04-03T01:40:48;5.50;99.90
6102;DHT22;3081;50.584;7.032;2023-04-03T01:43:15;5.50;99.90
6102;DHT22;3081;50.584;7.032;2023-04-03T01:45:42;5.50;99.90
6102;DHT22;3081;50.584;7.032;2023-04-03T01:48:09;5.50;99.90
6102;DHT22;3081;50.584;7.032;2023-04-03T01:50:37;5.40;99.90
6102;DHT22;3081;50.584;7.032;2023-04-03T01:53:04;5.40;99.90
6102;DHT22;3081;50.584;7.032;2023-04-03T01:55:31;5.40;99.90
6102;DHT22;3081;50.584;7.032;2023-04-03T01:57:58;5.40;99.90
6102;DHT22;3081;50.584;7.032;2023-04-03T02:00:25;5.40;99.90
6102;DHT22;3081;50.584;7.032;2023-04-03T02:02:52;5.30;99.90
6102;DHT22;3081;50.584;7.032;2023-04-03T02:05:19;5.40;99.90
6102;DHT22;3081;50.584;7.032;2023-04-03T02:07:47;5.30;99.90
6102;DHT22;3081;50.584;7.032;2023-04-03T02:10:14;5.30;99.90
6102;DHT22;3081;50.584;7.032;2023-04-03T02:12:41;5.30;99.90
6102;DHT22;3081;50.584;7.032;2023-04-03T02:15:09;5.20;99.90
6102;DHT22;3081;50.584;7.032;2023-04-03T02:17:36;5.20;99.90
6102;DHT22;3081;50.584;7.032;2023-04-03T02:20:03;5.20;99.90
6102;DHT22;3081;50.584;7.032;2023-04-03T02:22:30;5.20;99.90
6102;DHT22;3081;50.584;7.032;2023-04-03T02:24:59;5.20;99.90
6102;DHT22;3081;50.584;7.032;2023-04-03T02:27:26;5.10;99.90
6102;DHT22;3081;50.584;7.032;2023-04-03T02:29:53;5.10;99.90
6102;DHT22;3081;50.584;7.032;2023-04-03T02:32:20;5.10;99.90
6102;DHT22;3081;50.584;7.032;2023-04-03T02:34:46;5.10;99.90
6102;DHT22;3081;50.584;7.032;2023-04-03T02:37:13;5.10;99.90
6102;DHT22;3081;50.584;7.032;2023-04-03T02:39:41;5.10;99.90
6102;DHT22;3081;50.584;7.032;2023-04-03T02:42:09;5.10;99.90
6102;DHT22;3081;50.584;7.032;2023-04-03T02:44:36;5.10;99.90
6102;DHT22;3081;50.584;7.032;2023-04-03T02:47:04;5.20;99.90
6102;DHT22;3081;50.584;7.032;2023-04-03T02:49:31;5.20;99.90
6102;DHT22;3081;50.584;7.032;2023-04-03T02:51:58;5.20;99.90
6102;DHT22;3081;50.584;7.032;2023-04-03T02:54:25;5.10;99.90
6102;DHT22;3081;50.584;7.032;2023-04-03T02:56:54;5.00;99.90
6102;DHT22;3081;50.584;7.032;2023-04-03T02:59:22;5.00;99.90
6102;DHT22;3081;50.584;7.032;2023-04-03T03:01:49;5.00;99.90
6102;DHT22;3081;50.584;7.032;2023-04-03T03:04:16;4.90;99.90
6102;DHT22;3081;50.584;7.032;2023-04-03T03:06:43;4.80;99.90
6102;DHT22;3081;50.584;7.032;2023-04-03T03:09:10;4.80;99.90
6102;DHT22;3081;50.584;7.032;2023-04-03T03:11:38;4.60;99.90
6102;DHT22;3081;50.584;7.032;2023-04-03T03:14:05;4.60;99.90
6102;DHT22;3081;50.584;7.032;2023-04-03T03:16:33;4.60;99.90
6102;DHT22;3081;50.584;7.032;2023-04-03T03:19:00;4.60;99.90
6102;DHT22;3081;50.584;7.032;2023-04-03T03:21:27;4.40;99.90
6102;DHT22;3081;50.584;7.032;2023-04-03T03:23:54;4.40;99.90
6102;DHT22;3081;50.584;7.032;2023-04-03T03:26:21;4.40;99.90
6102;DHT22;3081;50.584;7.032;2023-04-03T03:28:48;4.30;99.90
6102;DHT22;3081;50.584;7.032;2023-04-03T03:31:15;4.30;99.90
6102;DHT22;3081;50.584;7.032;2023-04-03T03:33:43;4.40;99.90
6102;DHT22;3081;50.584;7.032;2023-04-03T03:36:10;4.40;99.90
6102;DHT22;3081;50.584;7.032;2023-04-03T03:38:37;4.40;99.90
6102;DHT22;3081;50.584;7.032;2023-04-03T03:41:04;4.50;99.90
6102;DHT22;3081;50.584;7.032;2023-04-03T03:43:31;4.50;99.90
6102;DHT22;3081;50.584;7.032;2023-04-03T03:45:58;4.60;99.90
6102;DHT22;3081;50.584;7.032;2023-04-03T03:48:25;4.70;99.90
6102;DHT22;3081;50.584;7.032;2023-04-03T03:50:53;4.50;99.90
6102;DHT22;3081;50.584;7.032;2023-04-03T03:53:20;4.50;99.90
6102;DHT22;3081;50.584;7.032;2023-04-03T03:55:47;4.20;99.90
6102;DHT22;3081;50.584;7.032;2023-04-03T03:58:14;4.20;99.90
6102;DHT22;3081;50.584;7.032;2023-04-03T04:00:41;4.30;99.90
6102;DHT22;3081;50.584;7.032;2023-04-03T04:03:08;4.30;99.90
6102;DHT22;3081;50.584;7.032;2023-04-03T04:05:35;4.40;99.90
6102;DHT22;3081;50.584;7.032;2023-04-03T04:08:03;4.40;99.90
6102;DHT22;3081;50.584;7.032;2023-04-03T04:10:30;4.30;99.90
6102;DHT22;3081;50.584;7.032;2023-04-03T04:12:57;4.30;99.90
6102;DHT22;3081;50.584;7.032;2023-04-03T04:15:24;4.40;99.90
6102;DHT22;3081;50.584;7.032;2023-04-03T04:17:52;4.50;99.90
6102;DHT22;3081;50.584;7.032;2023-04-03T04:20:19;4.30;99.90
6102;DHT22;3081;50.584;7.032;2023-04-03T04:22:46;4.30;99.90
6102;DHT22;3081;50.584;7.032;2023-04-03T04:25:14;4.30;99.90
6102;DHT22;3081;50.584;7.032;2023-04-03T04:27:41;4.20;99.90
6102;DHT22;3081;50.584;7.032;2023-04-03T04:30:09;3.80;99.90
6102;DHT22;3081;50.584;7.032;2023-04-03T04:32:37;4.00;99.90
6102;DHT22;3081;50.584;7.032;2023-04-03T04:35:04;3.90;99.90
6102;DHT22;3081;50.584;7.032;2023-04-03T04:37:31;3.70;99.90
6102;DHT22;3081;50.584;7.032;2023-04-03T04:39:58;3.60;99.90
6102;DHT22;3081;50.584;7.032;2023-04-03T04:42:26;3.50;99.90
6102;DHT22;3081;50.584;7.032;2023-04-03T04:44:53;3.50;99.90
6102;DHT22;3081;50.584;7.032;2023-04-03T04:47:20;3.30;99.90
6102;DHT22;3081;50.584;7.032;2023-04-03T04:49:47;3.20;99.90
6102;DHT22;3081;50.584;7.032;2023-04-03T04:52:14;3.10;99.90
6102;DHT22;3081;50.584;7.032;2023-04-03T04:54:41;3.10;99.90
6102;DHT22;3081;50.584;7.032;2023-04-03T04:57:08;3.00;99.90
6102;DHT22;3081;50.584;7.032;2023-04-03T04:59:37;2.90;99.90
6102;DHT22;3081;50.584;7.032;2023-04-03T05:02:04;3.00;99.90
6102;DHT22;3081;50.584;7.032;2023-04-03T05:04:31;2.90;99.90
6102;DHT22;3081;50.584;7.032;2023-04-03T05:06:58;3.00;99.90
6102;DHT22;3081;50.584;7.032;2023-04-03T05:09:26;3.00;99.90
6102;DHT22;3081;50.584;7.032;2023-04-03T05:11:52;3.00;99.90
6102;DHT22;3081;50.584;7.032;2023-04-03T05:14:20;3.00;99.90
6102;DHT22;3081;50.584;7.032;2023-04-03T05:16:48;3.00;99.90
6102;DHT22;3081;50.584;7.032;2023-04-03T05:19:18;3.00;99.90
6102;DHT22;3081;50.584;7.032;2023-04-03T05:21:45;3.00;99.90
6102;DHT22;3081;50.584;7.032;2023-04-03T05:24:12;3.00;99.90
6102;DHT22;3081;50.584;7.032;2023-04-03T05:26:39;3.00;99.90
6102;DHT22;3081;50.584;7.032;2023-04-03T05:29:06;3.10;99.90
6102;DHT22;3081;50.584;7.032;2023-04-03T05:31:33;3.10;99.90
6102;DHT22;3081;50.584;7.032;2023-04-03T05:34:02;3.10;99.90
6102;DHT22;3081;50.584;7.032;2023-04-03T05:36:29;3.20;99.90
6102;DHT22;3081;50.584;7.032;2023-04-03T05:38:56;3.20;99.90
6102;DHT22;3081;50.584;7.032;2023-04-03T05:41:23;3.30;99.90
6102;DHT22;3081;50.584;7.032;2023-04-03T05:43:51;3.30;99.90
6102;DHT22;3081;50.584;7.032;2023-04-03T05:46:19;3.40;99.90
6102;DHT22;3081;50.584;7.032;2023-04-03T05:48:47;3.40;99.90
6102;DHT22;3081;50.584;7.032;2023-04-03T05:51:17;3.50;99.90
6102;DHT22;3081;50.584;7.032;2023-04-03T05:53:44;3.60;99.90
6102;DHT22;3081;50.584;7.032;2023-04-03T05:56:13;3.60;99.90
6102;DHT22;3081;50.584;7.032;2023-04-03T05:58:40;3.70;99.90
6102;DHT22;3081;50.584;7.032;2023-04-03T06:01:07;3.80;99.90
6102;DHT22;3081;50.584;7.032;2023-04-03T06:03:34;3.90;99.90
6102;DHT22;3081;50.584;7.032;2023-04-03T06:06:03;3.90;99.90
6102;DHT22;3081;50.584;7.032;2023-04-03T06:08:32;4.00;99.90
6102;DHT22;3081;50.584;7.032;2023-04-03T06:11:00;4.20;99.90
6102;DHT22;3081;50.584;7.032;2023-04-03T06:13:28;4.20;99.90
6102;DHT22;3081;50.584;7.032;2023-04-03T06:15:55;4.30;99.90
6102;DHT22;3081;50.584;7.032;2023-04-03T06:18:22;4.40;99.90
6102;DHT22;3081;50.584;7.032;2023-04-03T06:20:49;4.50;99.90
6102;DHT22;3081;50.584;7.032;2023-04-03T06:23:16;4.50;99.90
6102;DHT22;3081;50.584;7.032;2023-04-03T06:25:45;4.60;99.90
6102;DHT22;3081;50.584;7.032;2023-04-03T06:28:12;4.70;99.90
6102;DHT22;3081;50.584;7.032;2023-04-03T06:30:39;4.80;99.90
6102;DHT22;3081;50.584;7.032;2023-04-03T06:33:06;4.80;99.90
6102;DHT22;3081;50.584;7.032;2023-04-03T06:35:33;4.90;99.90
6102;DHT22;3081;50.584;7.032;2023-04-03T06:38:01;5.00;99.90
6102;DHT22;3081;50.584;7.032;2023-04-03T06:40:29;5.00;99.90
6102;DHT22;3081;50.584;7.032;2023-04-03T06:42:58;5.00;99.90
6102;DHT22;3081;50.584;7.032;2023-04-03T06:45:24;5.10;99.90
6102;DHT22;3081;50.584;7.032;2023-04-03T06:47:52;5.10;99.90
6102;DHT22;3081;50.584;7.032;2023-04-03T06:50:19;5.20;99.90
6102;DHT22;3081;50.584;7.032;2023-04-03T06:52:46;5.20;99.90
6102;DHT22;3081;50.584;7.032;2023-04-03T06:55:13;5.10;99.90
6102;DHT22;3081;50.584;7.032;2023-04-03T06:57:40;5.20;99.90
6102;DHT22;3081;50.584;7.032;2023-04-03T07:00:10;5.30;99.90
6102;DHT22;3081;50.584;7.032;2023-04-03T07:02:37;5.40;99.90
6102;DHT22;3081;50.584;7.032;2023-04-03T07:05:05;5.50;99.90
6102;DHT22;3081;50.584;7.032;2023-04-03T07:07:32;5.50;99.90
6102;DHT22;3081;50.584;7.032;2023-04-03T07:09:59;5.50;99.90
6102;DHT22;3081;50.584;7.032;2023-04-03T07:12:26;5.60;99.90
6102;DHT22;3081;50.584;7.032;2023-04-03T07:14:53;5.60;99.90
6102;DHT22;3081;50.584;7.032;2023-04-03T07:17:21;5.60;99.90
6102;DHT22;3081;50.584;7.032;2023-04-03T07:19:48;5.70;99.90
6102;DHT22;3081;50.584;7.032;2023-04-03T07:22:15;5.80;99.90
6102;DHT22;3081;50.584;7.032;2023-04-03T07:24:42;5.80;99.90
6102;DHT22;3081;50.584;7.032;2023-04-03T07:27:09;5.80;99.90
6102;DHT22;3081;50.584;7.032;2023-04-03T07:29:38;5.80;99.90
6102;DHT22;3081;50.584;7.032;2023-04-03T07:32:05;5.90;99.90
6102;DHT22;3081;50.584;7.032;2023-04-03T07:34:34;6.00;99.90
6102;DHT22;3081;50.584;7.032;2023-04-03T07:37:01;6.00;99.90
6102;DHT22;3081;50.584;7.032;2023-04-03T07:39:29;6.10;99.90
6102;DHT22;3081;50.584;7.032;2023-04-03T07:41:56;6.10;99.90
6102;DHT22;3081;50.584;7.032;2023-04-03T07:44:23;6.10;99.90
6102;DHT22;3081;50.584;7.032;2023-04-03T07:46:50;6.10;99.90
6102;DHT22;3081;50.584;7.032;2023-04-03T07:49:17;6.20;99.90
6102;DHT22;3081;50.584;7.032;2023-04-03T07:51:46;6.30;99.90
6102;DHT22;3081;50.584;7.032;2023-04-03T07:54:14;6.40;99.90
6102;DHT22;3081;50.584;7.032;2023-04-03T07:56:41;6.50;99.90
6102;DHT22;3081;50.584;7.032;2023-04-03T07:59:09;6.50;99.90
6102;DHT22;3081;50.584;7.032;2023-04-03T08:01:37;6.60;99.90
6102;DHT22;3081;50.584;7.032;2023-04-03T08:04:03;6.60;99.90
6102;DHT22;3081;50.584;7.032;2023-04-03T08:06:31;6.70;99.90
6102;DHT22;3081;50.584;7.032;2023-04-03T08:09:02;6.80;99.90
6102;DHT22;3081;50.584;7.032;2023-04-03T08:11:30;6.90;99.90
6102;DHT22;3081;50.584;7.032;2023-04-03T08:13:57;7.00;99.90
6102;DHT22;3081;50.584;7.032;2023-04-03T08:16:24;7.00;99.90
6102;DHT22;3081;50.584;7.032;2023-04-03T08:18:53;7.10;99.90
6102;DHT22;3081;50.584;7.032;2023-04-03T08:21:20;7.20;99.90
6102;DHT22;3081;50.584;7.032;2023-04-03T08:23:48;7.30;99.90
6102;DHT22;3081;50.584;7.032;2023-04-03T08:26:19;7.50;99.90
6102;DHT22;3081;50.584;7.032;2023-04-03T08:28:47;7.50;99.90
6102;DHT22;3081;50.584;7.032;2023-04-03T08:31:15;7.60;99.90
6102;DHT22;3081;50.584;7.032;2023-04-03T08:33:44;7.70;99.90
6102;DHT22;3081;50.584;7.032;2023-04-03T08:36:17;7.90;99.90
6102;DHT22;3081;50.584;7.032;2023-04-03T08:38:45;8.00;99.90
6102;DHT22;3081;50.584;7.032;2023-04-03T08:41:15;8.10;99.90
6102;DHT22;3081;50.584;7.032;2023-04-03T08:43:56;8.20;99.90
6102;DHT22;3081;50.584;7.032;2023-04-03T08:46:33;8.60;99.90
6102;DHT22;3081;50.584;7.032;2023-04-03T08:49:06;9.30;99.90
6102;DHT22;3081;50.584;7.032;2023-04-03T08:51:38;10.70;99.90
6102;DHT22;3081;50.584;7.032;2023-04-03T08:54:10;12.30;99.90
6102;DHT22;3081;50.584;7.032;2023-04-03T08:56:39;13.30;99.90
6102;DHT22;3081;50.584;7.032;2023-04-03T08:59:12;14.50;99.90
6102;DHT22;3081;50.584;7.032;2023-04-03T09:01:41;15.70;98.70
6102;DHT22;3081;50.584;7.032;2023-04-03T09:04:11;16.60;92.50
6102;DHT22;3081;50.584;7.032;2023-04-03T09:06:38;16.70;85.30
6102;DHT22;3081;50.584;7.032;2023-04-03T09:09:12;15.90;83.80
6102;DHT22;3081;50.584;7.032;2023-04-03T09:11:47;16.00;84.90
6102;DHT22;3081;50.584;7.032;2023-04-03T09:14:24;16.80;82.00
6102;DHT22;3081;50.584;7.032;2023-04-03T09:16:55;17.50;77.20
6102;DHT22;3081;50.584;7.032;2023-04-03T09:19:34;17.70;76.70
6102;DHT22;3081;50.584;7.032;2023-04-03T09:22:11;18.40;73.40
6102;DHT22;3081;50.584;7.032;2023-04-03T09:24:41;19.20;69.60
6102;DHT22;3081;50.584;7.032;2023-04-03T09:27:11;19.70;65.70
6102;DHT22;3081;50.584;7.032;2023-04-03T09:29:41;19.80;63.80
6102;DHT22;3081;50.584;7.032;2023-04-03T09:32:22;19.70;62.50
6102;DHT22;3081;50.584;7.032;2023-04-03T09:34:53;19.90;60.90
6102;DHT22;3081;50.584;7.032;2023-04-03T09:37:38;19.40;60.40
6102;DHT22;3081;50.584;7.032;2023-04-03T09:40:27;19.40;59.90
6102;DHT22;3081;50.584;7.032;2023-04-03T09:42:55;19.60;60.40
6102;DHT22;3081;50.584;7.032;2023-04-03T09:45:27;19.30;58.50
6102;DHT22;3081;50.584;7.032;2023-04-03T09:48:06;18.80;59.20
6102;DHT22;3081;50.584;7.032;2023-04-03T09:50:35;18.90;60.60
6102;DHT22;3081;50.584;7.032;2023-04-03T09:53:06;19.10;58.90
6102;DHT22;3081;50.584;7.032;2023-04-03T09:55:42;19.60;57.90
6102;DHT22;3081;50.584;7.032;2023-04-03T09:58:24;20.00;57.10
6102;DHT22;3081;50.584;7.032;2023-04-03T10:00:56;20.20;55.80
6102;DHT22;3081;50.584;7.032;2023-04-03T10:03:27;20.10;55.90
6102;DHT22;3081;50.584;7.032;2023-04-03T10:05:54;19.00;55.30
6102;DHT22;3081;50.584;7.032;2023-04-03T10:08:26;17.40;57.30
6102;DHT22;3081;50.584;7.032;2023-04-03T10:11:08;17.30;59.50
6102;DHT22;3081;50.584;7.032;2023-04-03T10:13:37;18.30;57.30
6102;DHT22;3081;50.584;7.032;2023-04-03T10:16:18;18.20;57.00
6102;DHT22;3081;50.584;7.032;2023-04-03T10:18:53;17.50;58.30
6102;DHT22;3081;50.584;7.032;2023-04-03T10:21:35;17.90;59.70
6102;DHT22;3081;50.584;7.032;2023-04-03T10:24:09;19.00;58.40
6102;DHT22;3081;50.584;7.032;2023-04-03T10:26:44;19.60;55.90
6102;DHT22;3081;50.584;7.032;2023-04-03T10:29:38;19.20;55.40
6102;DHT22;3081;50.584;7.032;2023-04-03T10:32:17;17.90;56.20
6102;DHT22;3081;50.584;7.032;2023-04-03T10:34:51;16.40;58.50
6102;DHT22;3081;50.584;7.032;2023-04-03T10:37:24;15.80;61.00
6102;DHT22;3081;50.584;7.032;2023-04-03T10:39:56;15.20;61.10
6102;DHT22;3081;50.584;7.032;2023-04-03T10:42:28;15.50;62.70
6102;DHT22;3081;50.584;7.032;2023-04-03T10:45:18;16.40;60.60
6102;DHT22;3081;50.584;7.032;2023-04-03T10:47:56;17.20;60.20
6102;DHT22;3081;50.584;7.032;2023-04-03T10:50:31;18.00;58.80
6102;DHT22;3081;50.584;7.032;2023-04-03T10:53:07;18.40;57.10
6102;DHT22;3081;50.584;7.032;2023-04-03T10:55:38;18.70;56.60
6102;DHT22;3081;50.584;7.032;2023-04-03T10:58:13;19.00;55.20
6102;DHT22;3081;50.584;7.032;2023-04-03T11:00:46;19.40;55.50
6102;DHT22;3081;50.584;7.032;2023-04-03T11:03:24;20.00;53.80
6102;DHT22;3081;50.584;7.032;2023-04-03T11:05:53;20.50;52.70
6102;DHT22;3081;50.584;7.032;2023-04-03T11:08:27;20.30;51.70
6102;DHT22;3081;50.584;7.032;2023-04-03T11:10:57;20.30;50.50
6102;DHT22;3081;50.584;7.032;2023-04-03T11:13:27;20.40;51.20
6102;DHT22;3081;50.584;7.032;2023-04-03T11:15:58;20.40;49.20
6102;DHT22;3081;50.584;7.032;2023-04-03T11:18:31;20.30;49.50
6102;DHT22;3081;50.584;7.032;2023-04-03T11:21:03;20.70;49.00
6102;DHT22;3081;50.584;7.032;2023-04-03T11:23:35;21.10;49.40
6102;DHT22;3081;50.584;7.032;2023-04-03T11:26:09;21.30;50.10
6102;DHT22;3081;50.584;7.032;2023-04-03T11:28:36;21.50;48.60
6102;DHT22;3081;50.584;7.032;2023-04-03T11:31:12;21.70;48.60
6102;DHT22;3081;50.584;7.032;2023-04-03T11:33:51;21.70;49.00
6102;DHT22;3081;50.584;7.032;2023-04-03T11:36:24;21.70;49.30
6102;DHT22;3081;50.584;7.032;2023-04-03T11:38:54;22.10;47.40
6102;DHT22;3081;50.584;7.032;2023-04-03T11:41:27;22.40;47.50
6102;DHT22;3081;50.584;7.032;2023-04-03T11:44:00;22.60;47.10
6102;DHT22;3081;50.584;7.032;2023-04-03T11:46:58;22.40;46.00
6102;DHT22;3081;50.584;7.032;2023-04-03T11:50:00;22.00;46.40
6102;DHT22;3081;50.584;7.032;2023-04-03T11:52:59;21.50;45.70
6102;DHT22;3081;50.584;7.032;2023-04-03T11:55:43;21.30;47.20
6102;DHT22;3081;50.584;7.032;2023-04-03T11:58:15;21.70;47.00
6102;DHT22;3081;50.584;7.032;2023-04-03T12:00:58;22.10;45.40
6102;DHT22;3081;50.584;7.032;2023-04-03T12:04:06;22.20;43.60
6102;DHT22;3081;50.584;7.032;2023-04-03T12:07:08;22.00;43.00
6102;DHT22;3081;50.584;7.032;2023-04-03T12:09:58;21.90;43.50
6102;DHT22;3081;50.584;7.032;2023-04-03T12:12:37;22.10;44.70
6102;DHT22;3081;50.584;7.032;2023-04-03T12:15:47;22.40;44.70
6102;DHT22;3081;50.584;7.032;2023-04-03T12:18:41;23.00;43.80
6102;DHT22;3081;50.584;7.032;2023-04-03T12:21:08;23.20;42.60
6102;DHT22;3081;50.584;7.032;2023-04-03T12:23:57;23.30;41.00
6102;DHT22;3081;50.584;7.032;2023-04-03T12:26:27;23.70;41.10
6102;DHT22;3081;50.584;7.032;2023-04-03T12:28:55;23.90;39.40
6102;DHT22;3081;50.584;7.032;2023-04-03T12:31:25;23.80;39.20
6102;DHT22;3081;50.584;7.032;2023-04-03T12:34:12;23.40;38.90
6102;DHT22;3081;50.584;7.032;2023-04-03T12:36:49;23.30;39.30
6102;DHT22;3081;50.584;7.032;2023-04-03T12:39:49;23.50;39.70
6102;DHT22;3081;50.584;7.032;2023-04-03T12:42:31;23.40;38.90
6102;DHT22;3081;50.584;7.032;2023-04-03T12:45:03;23.50;39.00
6102;DHT22;3081;50.584;7.032;2023-04-03T12:47:36;23.80;38.90
6102;DHT22;3081;50.584;7.032;2023-04-03T12:50:04;24.20;39.30
6102;DHT22;3081;50.584;7.032;2023-04-03T12:52:45;24.80;38.30
6102;DHT22;3081;50.584;7.032;2023-04-03T12:55:19;25.50;38.70
6102;DHT22;3081;50.584;7.032;2023-04-03T12:57:46;25.60;38.10
6102;DHT22;3081;50.584;7.032;2023-04-03T13:00:31;25.10;38.70
6102;DHT22;3081;50.584;7.032;2023-04-03T13:03:00;25.10;38.80
6102;DHT22;3081;50.584;7.032;2023-04-03T13:05:28;25.30;37.80
6102;DHT22;3081;50.584;7.032;2023-04-03T13:08:00;25.20;37.20
6102;DHT22;3081;50.584;7.032;2023-04-03T13:10:30;25.40;38.30
6102;DHT22;3081;50.584;7.032;2023-04-03T13:13:06;26.30;37.20
6102;DHT22;3081;50.584;7.032;2023-04-03T13:15:43;27.10;36.20
6102;DHT22;3081;50.584;7.032;2023-04-03T13:18:26;27.20;36.50
6102;DHT22;3081;50.584;7.032;2023-04-03T13:20:57;27.70;35.20
6102;DHT22;3081;50.584;7.032;2023-04-03T13:23:26;28.60;34.60
6102;DHT22;3081;50.584;7.032;2023-04-03T13:25:55;28.50;34.10
6102;DHT22;3081;50.584;7.032;2023-04-03T13:28:27;28.10;34.10
6102;DHT22;3081;50.584;7.032;2023-04-03T13:31:00;28.60;33.50
6102;DHT22;3081;50.584;7.032;2023-04-03T13:33:30;28.50;32.80
6102;DHT22;3081;50.584;7.032;2023-04-03T13:36:02;28.00;34.20
6102;DHT22;3081;50.584;7.032;2023-04-03T13:38:32;28.40;33.00
6102;DHT22;3081;50.584;7.032;2023-04-03T13:41:03;28.60;32.80
6102;DHT22;3081;50.584;7.032;2023-04-03T13:43:34;29.10;33.10
6102;DHT22;3081;50.584;7.032;2023-04-03T13:46:20;29.90;32.30
6102;DHT22;3081;50.584;7.032;2023-04-03T13:48:50;30.80;31.50
6102;DHT22;3081;50.584;7.032;2023-04-03T13:51:20;30.80;31.10
6102;DHT22;3081;50.584;7.032;2023-04-03T13:53:50;31.10;31.90
6102;DHT22;3081;50.584;7.032;2023-04-03T13:56:30;31.70;30.60
6102;DHT22;3081;50.584;7.032;2023-04-03T13:59:06;31.70;29.70
6102;DHT22;3081;50.584;7.032;2023-04-03T14:01:48;31.20;30.00
6102;DHT22;3081;50.584;7.032;2023-04-03T14:04:18;31.00;30.50
6102;DHT22;3081;50.584;7.032;2023-04-03T14:06:48;30.70;30.10
6102;DHT22;3081;50.584;7.032;2023-04-03T14:09:16;30.60;30.70
6102;DHT22;3081;50.584;7.032;2023-04-03T14:11:45;31.00;30.70
6102;DHT22;3081;50.584;7.032;2023-04-03T14:14:16;32.20;30.00
6102;DHT22;3081;50.584;7.032;2023-04-03T14:16:47;32.90;29.20
6102;DHT22;3081;50.584;7.032;2023-04-03T14:19:19;32.90;29.80
6102;DHT22;3081;50.584;7.032;2023-04-03T14:21:47;33.40;29.40
6102;DHT22;3081;50.584;7.032;2023-04-03T14:24:14;34.40;29.30
6102;DHT22;3081;50.584;7.032;2023-04-03T14:26:42;35.10;27.90
6102;DHT22;3081;50.584;7.032;2023-04-03T14:29:11;35.00;27.80
6102;DHT22;3081;50.584;7.032;2023-04-03T14:31:38;34.50;28.10
6102;DHT22;3081;50.584;7.032;2023-04-03T14:34:05;34.20;28.20
6102;DHT22;3081;50.584;7.032;2023-04-03T14:36:33;34.60;28.10
6102;DHT22;3081;50.584;7.032;2023-04-03T14:39:00;34.80;28.10
6102;DHT22;3081;50.584;7.032;2023-04-03T14:41:27;35.40;28.00
6102;DHT22;3081;50.584;7.032;2023-04-03T14:43:56;36.10;27.50
6102;DHT22;3081;50.584;7.032;2023-04-03T14:46:28;36.50;26.50
6102;DHT22;3081;50.584;7.032;2023-04-03T14:48:56;37.10;26.40
6102;DHT22;3081;50.584;7.032;2023-04-03T14:51:23;37.20;26.30
6102;DHT22;3081;50.584;7.032;2023-04-03T14:53:52;37.80;26.30
6102;DHT22;3081;50.584;7.032;2023-04-03T14:56:21;37.90;25.30
6102;DHT22;3081;50.584;7.032;2023-04-03T14:58:49;37.80;25.80
6102;DHT22;3081;50.584;7.032;2023-04-03T15:01:18;37.50;25.90
6102;DHT22;3081;50.584;7.032;2023-04-03T15:03:47;37.00;26.20
6102;DHT22;3081;50.584;7.032;2023-04-03T15:06:14;37.00;25.90
6102;DHT22;3081;50.584;7.032;2023-04-03T15:08:42;37.20;25.80
6102;DHT22;3081;50.584;7.032;2023-04-03T15:11:10;37.50;25.70
6102;DHT22;3081;50.584;7.032;2023-04-03T15:13:37;37.80;25.50
6102;DHT22;3081;50.584;7.032;2023-04-03T15:16:05;37.60;25.70
6102;DHT22;3081;50.584;7.032;2023-04-03T15:18:35;37.90;25.60
6102;DHT22;3081;50.584;7.032;2023-04-03T15:21:05;38.90;25.50
6102;DHT22;3081;50.584;7.032;2023-04-03T15:23:32;39.60;25.10
6102;DHT22;3081;50.584;7.032;2023-04-03T15:25:59;40.10;25.10
6102;DHT22;3081;50.584;7.032;2023-04-03T15:28:28;40.60;25.00
6102;DHT22;3081;50.584;7.032;2023-04-03T15:30:57;40.20;24.80
6102;DHT22;3081;50.584;7.032;2023-04-03T15:33:24;39.30;25.20
6102;DHT22;3081;50.584;7.032;2023-04-03T15:35:52;38.60;25.40
6102;DHT22;3081;50.584;7.032;2023-04-03T15:38:20;38.20;25.70
6102;DHT22;3081;50.584;7.032;2023-04-03T15:40:47;38.00;25.70
6102;DHT22;3081;50.584;7.032;2023-04-03T15:43:15;38.20;25.40
6102;DHT22;3081;50.584;7.032;2023-04-03T15:45:43;38.70;25.50
6102;DHT22;3081;50.584;7.032;2023-04-03T15:48:11;39.80;25.40
6102;DHT22;3081;50.584;7.032;2023-04-03T15:50:39;40.60;24.30
6102;DHT22;3081;50.584;7.032;2023-04-03T15:53:06;41.20;24.20
6102;DHT22;3081;50.584;7.032;2023-04-03T15:55:35;41.70;24.40
6102;DHT22;3081;50.584;7.032;2023-04-03T15:58:03;41.70;23.90
6102;DHT22;3081;50.584;7.032;2023-04-03T16:00:31;40.70;24.50
6102;DHT22;3081;50.584;7.032;2023-04-03T16:02:59;39.70;24.70
6102;DHT22;3081;50.584;7.032;2023-04-03T16:05:27;38.60;25.00
6102;DHT22;3081;50.584;7.032;2023-04-03T16:07:54;37.80;25.40
6102;DHT22;3081;50.584;7.032;2023-04-03T16:10:21;38.30;25.40
6102;DHT22;3081;50.584;7.032;2023-04-03T16:12:50;39.00;25.20
6102;DHT22;3081;50.584;7.032;2023-04-03T16:15:17;39.50;25.10
6102;DHT22;3081;50.584;7.032;2023-04-03T16:17:44;39.60;24.70
6102;DHT22;3081;50.584;7.032;2023-04-03T16:20:12;39.30;24.70
6102;DHT22;3081;50.584;7.032;2023-04-03T16:22:40;39.20;24.70
6102;DHT22;3081;50.584;7.032;2023-04-03T16:25:08;38.40;24.90
6102;DHT22;3081;50.584;7.032;2023-04-03T16:27:35;38.00;25.20
6102;DHT22;3081;50.584;7.032;2023-04-03T16:30:05;37.90;24.90
6102;DHT22;3081;50.584;7.032;2023-04-03T16:32:32;37.60;24.50
6102;DHT22;3081;50.584;7.032;2023-04-03T16:35:00;37.40;25.00